Alma, Georgia
Current Conditions -  °F | °C
As of 10:53 AM on Sunday 21 Dec 2014 (Local Time) from KAMG Reporting Station
Overcast Overcast  
Wind Chill: 51°   Ceiling: 700
Heat Index: 51°   Visibility: 9mi
Dew Point: 49°   Wind: 7mph
Humidity: 92%   Direction: 50°NE
Pressure: 30.17"   Gusts: NA
Location:  31.54°N, 82.46°W
Report Text: KAMG 211553Z AUTO 05006KT 9SM OVC007 11/09 A3017 RMK AO2 RAE04 CIG 005V010 SLP216 P0000 T01060094 $
Loading
Personal Weather Stations






























Interactive Weather Map New forecast layout! Learn more

10-Day Weather Forecast

Advertisements
Track Severe Weather on mobile